sensor_id;sensor_type;location;lat;lon;timestamp;temperature;humidity
9941;DHT22;5009;50.656;7.188;2023-07-20T02:11:15;18.10;99.90
9941;DHT22;5009;50.656;7.188;2023-07-20T02:13:41;18.10;99.90
9941;DHT22;5009;50.656;7.188;2023-07-20T02:16:06;18.10;99.90
9941;DHT22;5009;50.656;7.188;2023-07-20T02:18:32;18.10;99.90
9941;DHT22;5009;50.656;7.188;2023-07-20T02:20:58;18.10;99.90
9941;DHT22;5009;50.656;7.188;2023-07-20T02:23:24;18.10;99.90
9941;DHT22;5009;50.656;7.188;2023-07-20T02:25:50;18.00;99.90
9941;DHT22;5009;50.656;7.188;2023-07-20T02:28:15;18.10;99.90
9941;DHT22;5009;50.656;7.188;2023-07-20T02:30:41;18.00;99.90
9941;DHT22;5009;50.656;7.188;2023-07-20T02:33:07;18.00;99.90
9941;DHT22;5009;50.656;7.188;2023-07-20T02:35:33;18.00;99.90
9941;DHT22;5009;50.656;7.188;2023-07-20T02:37:59;17.90;99.90
9941;DHT22;5009;50.656;7.188;2023-07-20T02:40:25;18.00;99.90
9941;DHT22;5009;50.656;7.188;2023-07-20T02:42:51;17.90;99.90
9941;DHT22;5009;50.656;7.188;2023-07-20T02:45:16;17.90;99.90
9941;DHT22;5009;50.656;7.188;2023-07-20T02:47:42;18.00;99.90
9941;DHT22;5009;50.656;7.188;2023-07-20T02:50:08;17.90;99.90
9941;DHT22;5009;50.656;7.188;2023-07-20T02:52:34;17.90;99.90
9941;DHT22;5009;50.656;7.188;2023-07-20T02:54:59;17.80;99.90
9941;DHT22;5009;50.656;7.188;2023-07-20T02:57:25;17.90;99.90
9941;DHT22;5009;50.656;7.188;2023-07-20T02:59:51;17.90;99.90
9941;DHT22;5009;50.656;7.188;2023-07-20T03:02:16;17.80;99.90
9941;DHT22;5009;50.656;7.188;2023-07-20T03:04:42;17.80;99.90
9941;DHT22;5009;50.656;7.188;2023-07-20T03:07:07;17.80;99.90
9941;DHT22;5009;50.656;7.188;2023-07-20T03:09:33;17.80;99.90
9941;DHT22;5009;50.656;7.188;2023-07-20T03:11:59;17.80;99.90
9941;DHT22;5009;50.656;7.188;2023-07-20T03:14:25;17.70;99.90
9941;DHT22;5009;50.656;7.188;2023-07-20T03:16:50;17.70;99.90
9941;DHT22;5009;50.656;7.188;2023-07-20T03:19:16;17.70;99.90
9941;DHT22;5009;50.656;7.188;2023-07-20T03:21:41;17.60;99.90
9941;DHT22;5009;50.656;7.188;2023-07-20T03:24:08;17.60;99.90
9941;DHT22;5009;50.656;7.188;2023-07-20T03:26:35;17.40;99.90
9941;DHT22;5009;50.656;7.188;2023-07-20T03:29:01;17.50;99.90
9941;DHT22;5009;50.656;7.188;2023-07-20T03:31:26;17.40;99.90
9941;DHT22;5009;50.656;7.188;2023-07-20T03:33:52;17.40;99.90
9941;DHT22;5009;50.656;7.188;2023-07-20T03:36:17;17.30;99.90
9941;DHT22;5009;50.656;7.188;2023-07-20T03:38:43;17.30;99.90
9941;DHT22;5009;50.656;7.188;2023-07-20T03:41:08;17.30;99.90
9941;DHT22;5009;50.656;7.188;2023-07-20T03:43:34;17.40;99.90
9941;DHT22;5009;50.656;7.188;2023-07-20T03:46:00;17.40;99.90
9941;DHT22;5009;50.656;7.188;2023-07-20T03:48:26;17.40;99.90
9941;DHT22;5009;50.656;7.188;2023-07-20T03:50:53;17.40;99.90
9941;DHT22;5009;50.656;7.188;2023-07-20T03:53:19;17.30;99.90
9941;DHT22;5009;50.656;7.188;2023-07-20T03:55:49;17.30;99.90
9941;DHT22;5009;50.656;7.188;2023-07-20T03:58:15;17.40;99.90
9941;DHT22;5009;50.656;7.188;2023-07-20T04:00:49;17.40;99.90
9941;DHT22;5009;50.656;7.188;2023-07-20T04:03:16;17.40;99.90
9941;DHT22;5009;50.656;7.188;2023-07-20T04:05:42;17.40;99.90
9941;DHT22;5009;50.656;7.188;2023-07-20T04:08:08;17.40;99.90
9941;DHT22;5009;50.656;7.188;2023-07-20T04:10:34;17.40;99.90
9941;DHT22;5009;50.656;7.188;2023-07-20T04:13:00;17.40;99.90
9941;DHT22;5009;50.656;7.188;2023-07-20T04:15:26;17.40;99.90
9941;DHT22;5009;50.656;7.188;2023-07-20T04:17:52;17.40;99.90
9941;DHT22;5009;50.656;7.188;2023-07-20T04:20:17;17.50;99.90
9941;DHT22;5009;50.656;7.188;2023-07-20T04:22:43;17.50;99.90
9941;DHT22;5009;50.656;7.188;2023-07-20T04:25:09;17.40;99.90
9941;DHT22;5009;50.656;7.188;2023-07-20T04:27:35;17.50;99.90
9941;DHT22;5009;50.656;7.188;2023-07-20T04:30:01;17.50;99.90
9941;DHT22;5009;50.656;7.188;2023-07-20T04:32:27;17.40;99.90
9941;DHT22;5009;50.656;7.188;2023-07-20T04:34:53;17.50;99.90
9941;DHT22;5009;50.656;7.188;2023-07-20T04:37:18;17.50;99.90
9941;DHT22;5009;50.656;7.188;2023-07-20T04:39:44;17.50;99.90
9941;DHT22;5009;50.656;7.188;2023-07-20T04:42:10;17.40;99.90
9941;DHT22;5009;50.656;7.188;2023-07-20T04:44:35;17.40;99.90
9941;DHT22;5009;50.656;7.188;2023-07-20T04:47:01;17.40;99.90
9941;DHT22;5009;50.656;7.188;2023-07-20T04:49:27;17.40;99.90
9941;DHT22;5009;50.656;7.188;2023-07-20T04:51:53;17.50;99.90
9941;DHT22;5009;50.656;7.188;2023-07-20T04:54:19;17.60;99.90
9941;DHT22;5009;50.656;7.188;2023-07-20T04:56:45;17.70;99.90
9941;DHT22;5009;50.656;7.188;2023-07-20T04:59:11;17.70;99.90
9941;DHT22;5009;50.656;7.188;2023-07-20T05:01:36;17.70;99.90
9941;DHT22;5009;50.656;7.188;2023-07-20T05:04:02;17.70;99.90
9941;DHT22;5009;50.656;7.188;2023-07-20T05:06:28;17.70;99.90
9941;DHT22;5009;50.656;7.188;2023-07-20T05:08:54;17.70;99.90
9941;DHT22;5009;50.656;7.188;2023-07-20T05:11:19;17.60;99.90
9941;DHT22;5009;50.656;7.188;2023-07-20T05:13:45;17.70;99.90
9941;DHT22;5009;50.656;7.188;2023-07-20T05:16:11;17.70;99.90
9941;DHT22;5009;50.656;7.188;2023-07-20T05:18:36;17.80;99.90
9941;DHT22;5009;50.656;7.188;2023-07-20T05:21:02;17.80;99.90
9941;DHT22;5009;50.656;7.188;2023-07-20T05:23:27;17.90;99.90
9941;DHT22;5009;50.656;7.188;2023-07-20T05:25:56;18.00;99.90
9941;DHT22;5009;50.656;7.188;2023-07-20T05:28:23;18.10;99.90
9941;DHT22;5009;50.656;7.188;2023-07-20T05:30:49;18.00;99.90
9941;DHT22;5009;50.656;7.188;2023-07-20T05:33:17;18.10;99.90
9941;DHT22;5009;50.656;7.188;2023-07-20T05:35:43;18.20;99.90
9941;DHT22;5009;50.656;7.188;2023-07-20T05:38:08;18.20;99.90
9941;DHT22;5009;50.656;7.188;2023-07-20T05:40:39;18.30;99.90
9941;DHT22;5009;50.656;7.188;2023-07-20T05:43:05;18.30;99.90
9941;DHT22;5009;50.656;7.188;2023-07-20T05:45:30;18.40;99.90
9941;DHT22;5009;50.656;7.188;2023-07-20T05:47:56;18.50;99.90
9941;DHT22;5009;50.656;7.188;2023-07-20T05:50:21;18.70;99.90
9941;DHT22;5009;50.656;7.188;2023-07-20T05:52:47;18.80;99.90
9941;DHT22;5009;50.656;7.188;2023-07-20T05:55:13;19.00;99.90
9941;DHT22;5009;50.656;7.188;2023-07-20T05:57:38;19.20;99.90
9941;DHT22;5009;50.656;7.188;2023-07-20T06:00:07;19.40;99.90
9941;DHT22;5009;50.656;7.188;2023-07-20T06:02:33;19.50;99.90
9941;DHT22;5009;50.656;7.188;2023-07-20T06:04:59;19.70;99.90
9941;DHT22;5009;50.656;7.188;2023-07-20T06:07:24;20.20;99.90
9941;DHT22;5009;50.656;7.188;2023-07-20T06:09:50;20.70;99.90
9941;DHT22;5009;50.656;7.188;2023-07-20T06:12:15;21.00;99.90
9941;DHT22;5009;50.656;7.188;2023-07-20T06:14:41;21.10;99.90
9941;DHT22;5009;50.656;7.188;2023-07-20T06:17:06;21.20;99.90
9941;DHT22;5009;50.656;7.188;2023-07-20T06:19:32;21.50;99.90
9941;DHT22;5009;50.656;7.188;2023-07-20T06:21:58;21.90;99.90
9941;DHT22;5009;50.656;7.188;2023-07-20T06:24:23;22.50;99.90
9941;DHT22;5009;50.656;7.188;2023-07-20T06:26:49;23.00;99.50
9941;DHT22;5009;50.656;7.188;2023-07-20T06:29:14;23.40;98.60
9941;DHT22;5009;50.656;7.188;2023-07-20T06:31:40;23.70;97.80
9941;DHT22;5009;50.656;7.188;2023-07-20T06:34:05;23.70;97.10
9941;DHT22;5009;50.656;7.188;2023-07-20T06:36:31;23.50;97.10
9941;DHT22;5009;50.656;7.188;2023-07-20T06:38:57;23.30;97.10
9941;DHT22;5009;50.656;7.188;2023-07-20T06:41:22;23.20;97.70
9941;DHT22;5009;50.656;7.188;2023-07-20T06:43:48;23.00;97.80
9941;DHT22;5009;50.656;7.188;2023-07-20T06:46:14;22.90;98.10
9941;DHT22;5009;50.656;7.188;2023-07-20T06:48:39;23.40;97.70
9941;DHT22;5009;50.656;7.188;2023-07-20T06:51:05;23.70;96.70
9941;DHT22;5009;50.656;7.188;2023-07-20T06:53:31;24.20;96.40
9941;DHT22;5009;50.656;7.188;2023-07-20T06:55:56;25.70;94.00
9941;DHT22;5009;50.656;7.188;2023-07-20T06:58:23;27.30;91.20
9941;DHT22;5009;50.656;7.188;2023-07-20T07:00:49;28.20;87.60
9941;DHT22;5009;50.656;7.188;2023-07-20T07:03:14;28.40;85.60
9941;DHT22;5009;50.656;7.188;2023-07-20T07:05:40;28.10;84.30
9941;DHT22;5009;50.656;7.188;2023-07-20T07:08:06;27.50;84.70
9941;DHT22;5009;50.656;7.188;2023-07-20T07:10:32;27.50;85.30
9941;DHT22;5009;50.656;7.188;2023-07-20T07:12:58;27.20;85.00
9941;DHT22;5009;50.656;7.188;2023-07-20T07:15:24;26.90;86.60
9941;DHT22;5009;50.656;7.188;2023-07-20T07:17:49;26.30;87.10
9941;DHT22;5009;50.656;7.188;2023-07-20T07:20:16;25.70;88.60
9941;DHT22;5009;50.656;7.188;2023-07-20T07:22:41;25.30;89.70
9941;DHT22;5009;50.656;7.188;2023-07-20T07:25:10;25.40;90.40
9941;DHT22;5009;50.656;7.188;2023-07-20T07:27:36;25.70;90.30
9941;DHT22;5009;50.656;7.188;2023-07-20T07:30:02;26.20;90.10
9941;DHT22;5009;50.656;7.188;2023-07-20T07:32:28;26.40;88.80
9941;DHT22;5009;50.656;7.188;2023-07-20T07:34:54;26.30;88.60
9941;DHT22;5009;50.656;7.188;2023-07-20T07:37:20;27.20;89.40
9941;DHT22;5009;50.656;7.188;2023-07-20T07:39:46;28.20;86.10
9941;DHT22;5009;50.656;7.188;2023-07-20T07:42:12;29.40;82.30
9941;DHT22;5009;50.656;7.188;2023-07-20T07:44:38;30.20;77.60
9941;DHT22;5009;50.656;7.188;2023-07-20T07:47:04;30.10;74.20
9941;DHT22;5009;50.656;7.188;2023-07-20T07:49:30;29.40;73.90
9941;DHT22;5009;50.656;7.188;2023-07-20T07:51:56;29.00;75.60
9941;DHT22;5009;50.656;7.188;2023-07-20T07:54:22;28.50;76.70
9941;DHT22;5009;50.656;7.188;2023-07-20T07:56:47;28.80;76.00
9941;DHT22;5009;50.656;7.188;2023-07-20T07:59:13;29.50;74.70
9941;DHT22;5009;50.656;7.188;2023-07-20T08:01:39;30.70;72.30
9941;DHT22;5009;50.656;7.188;2023-07-20T08:04:04;31.20;68.80
9941;DHT22;5009;50.656;7.188;2023-07-20T08:06:30;30.90;66.10
9941;DHT22;5009;50.656;7.188;2023-07-20T08:08:56;30.30;66.10
9941;DHT22;5009;50.656;7.188;2023-07-20T08:11:24;29.60;65.90
9941;DHT22;5009;50.656;7.188;2023-07-20T08:13:49;28.70;67.40
9941;DHT22;5009;50.656;7.188;2023-07-20T08:16:15;27.80;69.30
9941;DHT22;5009;50.656;7.188;2023-07-20T08:18:40;26.90;72.10
9941;DHT22;5009;50.656;7.188;2023-07-20T08:21:06;26.20;74.80
9941;DHT22;5009;50.656;7.188;2023-07-20T08:23:32;25.80;76.90
9941;DHT22;5009;50.656;7.188;2023-07-20T08:25:57;25.50;79.50
9941;DHT22;5009;50.656;7.188;2023-07-20T08:28:23;25.50;81.50
9941;DHT22;5009;50.656;7.188;2023-07-20T08:30:49;25.60;82.10
9941;DHT22;5009;50.656;7.188;2023-07-20T08:33:18;26.00;81.90
9941;DHT22;5009;50.656;7.188;2023-07-20T08:35:48;26.50;82.20
9941;DHT22;5009;50.656;7.188;2023-07-20T08:38:14;27.00;80.20
9941;DHT22;5009;50.656;7.188;2023-07-20T08:40:42;27.40;77.70
9941;DHT22;5009;50.656;7.188;2023-07-20T08:43:10;27.70;75.80
9941;DHT22;5009;50.656;7.188;2023-07-20T08:45:36;27.70;74.10
9941;DHT22;5009;50.656;7.188;2023-07-20T08:48:05;27.80;75.00
9941;DHT22;5009;50.656;7.188;2023-07-20T08:50:31;28.00;73.40
9941;DHT22;5009;50.656;7.188;2023-07-20T08:52:58;28.00;72.80
9941;DHT22;5009;50.656;7.188;2023-07-20T08:55:27;27.90;70.40
9941;DHT22;5009;50.656;7.188;2023-07-20T08:57:58;28.10;70.90
9941;DHT22;5009;50.656;7.188;2023-07-20T09:00:25;28.10;67.80
9941;DHT22;5009;50.656;7.188;2023-07-20T09:02:52;28.20;69.50
9941;DHT22;5009;50.656;7.188;2023-07-20T09:05:19;28.20;71.10
9941;DHT22;5009;50.656;7.188;2023-07-20T09:07:45;28.50;71.10
9941;DHT22;5009;50.656;7.188;2023-07-20T09:10:11;28.60;68.60
9941;DHT22;5009;50.656;7.188;2023-07-20T09:12:39;28.70;67.70
9941;DHT22;5009;50.656;7.188;2023-07-20T09:15:06;28.80;65.40
9941;DHT22;5009;50.656;7.188;2023-07-20T09:17:32;28.80;63.40
9941;DHT22;5009;50.656;7.188;2023-07-20T09:19:57;28.80;62.80
9941;DHT22;5009;50.656;7.188;2023-07-20T09:22:29;28.70;63.30
9941;DHT22;5009;50.656;7.188;2023-07-20T09:24:56;28.70;63.90
9941;DHT22;5009;50.656;7.188;2023-07-20T09:27:22;28.50;62.60
9941;DHT22;5009;50.656;7.188;2023-07-20T09:29:51;28.40;60.70
9941;DHT22;5009;50.656;7.188;2023-07-20T09:32:20;28.20;59.80
9941;DHT22;5009;50.656;7.188;2023-07-20T09:34:47;28.10;59.90
9941;DHT22;5009;50.656;7.188;2023-07-20T09:37:12;28.10;61.60
9941;DHT22;5009;50.656;7.188;2023-07-20T09:39:45;28.00;62.80
9941;DHT22;5009;50.656;7.188;2023-07-20T09:42:14;28.00;63.70
9941;DHT22;5009;50.656;7.188;2023-07-20T09:44:43;28.10;64.20
9941;DHT22;5009;50.656;7.188;2023-07-20T09:47:08;28.20;64.10
9941;DHT22;5009;50.656;7.188;2023-07-20T09:49:42;28.30;64.00
9941;DHT22;5009;50.656;7.188;2023-07-20T09:52:11;28.30;61.50
9941;DHT22;5009;50.656;7.188;2023-07-20T09:54:38;28.30;60.40
9941;DHT22;5009;50.656;7.188;2023-07-20T09:57:09;28.20;59.90
9941;DHT22;5009;50.656;7.188;2023-07-20T09:59:35;28.10;59.80
9941;DHT22;5009;50.656;7.188;2023-07-20T10:02:02;28.00;61.30
9941;DHT22;5009;50.656;7.188;2023-07-20T10:04:30;27.90;60.00
9941;DHT22;5009;50.656;7.188;2023-07-20T10:06:59;27.90;59.70
9941;DHT22;5009;50.656;7.188;2023-07-20T10:09:26;27.80;60.10
9941;DHT22;5009;50.656;7.188;2023-07-20T10:11:53;27.80;60.60
9941;DHT22;5009;50.656;7.188;2023-07-20T10:14:20;27.40;60.00
9941;DHT22;5009;50.656;7.188;2023-07-20T10:16:50;27.30;62.00
9941;DHT22;5009;50.656;7.188;2023-07-20T10:19:30;27.50;62.10
9941;DHT22;5009;50.656;7.188;2023-07-20T10:22:12;27.60;59.70
9941;DHT22;5009;50.656;7.188;2023-07-20T10:24:39;27.50;57.60
9941;DHT22;5009;50.656;7.188;2023-07-20T10:27:06;27.40;58.10
9941;DHT22;5009;50.656;7.188;2023-07-20T10:29:32;27.20;57.10
9941;DHT22;5009;50.656;7.188;2023-07-20T10:31:58;27.00;58.30
9941;DHT22;5009;50.656;7.188;2023-07-20T10:34:25;27.10;58.70
9941;DHT22;5009;50.656;7.188;2023-07-20T10:36:50;27.20;58.80
9941;DHT22;5009;50.656;7.188;2023-07-20T10:39:28;27.10;57.70
9941;DHT22;5009;50.656;7.188;2023-07-20T10:42:09;27.00;57.70
9941;DHT22;5009;50.656;7.188;2023-07-20T10:44:37;27.00;57.60
9941;DHT22;5009;50.656;7.188;2023-07-20T10:47:13;26.90;57.80
9941;DHT22;5009;50.656;7.188;2023-07-20T10:49:57;26.70;58.20
9941;DHT22;5009;50.656;7.188;2023-07-20T10:52:23;26.60;58.00
9941;DHT22;5009;50.656;7.188;2023-07-20T10:54:49;26.60;58.50
9941;DHT22;5009;50.656;7.188;2023-07-20T10:59:48;26.60;58.70
9941;DHT22;5009;50.656;7.188;2023-07-20T11:02:18;26.60;58.10
9941;DHT22;5009;50.656;7.188;2023-07-20T11:04:46;26.60;57.40
9941;DHT22;5009;50.656;7.188;2023-07-20T11:07:16;26.40;57.70
9941;DHT22;5009;50.656;7.188;2023-07-20T11:09:42;26.20;57.30
9941;DHT22;5009;50.656;7.188;2023-07-20T11:12:18;26.20;57.00
9941;DHT22;5009;50.656;7.188;2023-07-20T11:14:53;26.40;57.20
9941;DHT22;5009;50.656;7.188;2023-07-20T11:17:19;26.50;57.60
9941;DHT22;5009;50.656;7.188;2023-07-20T11:19:55;26.40;57.80
9941;DHT22;5009;50.656;7.188;2023-07-20T11:22:22;26.40;57.70
9941;DHT22;5009;50.656;7.188;2023-07-20T11:24:48;26.50;57.70
9941;DHT22;5009;50.656;7.188;2023-07-20T11:27:15;26.60;58.20
9941;DHT22;5009;50.656;7.188;2023-07-20T11:29:40;26.70;58.40
9941;DHT22;5009;50.656;7.188;2023-07-20T11:32:06;26.60;57.40
9941;DHT22;5009;50.656;7.188;2023-07-20T11:34:33;26.70;57.50
9941;DHT22;5009;50.656;7.188;2023-07-20T11:36:59;26.70;58.10
9941;DHT22;5009;50.656;7.188;2023-07-20T11:39:25;26.80;58.00
9941;DHT22;5009;50.656;7.188;2023-07-20T11:41:55;26.70;57.90
9941;DHT22;5009;50.656;7.188;2023-07-20T11:44:22;26.60;58.00
9941;DHT22;5009;50.656;7.188;2023-07-20T11:49:30;26.60;56.90
9941;DHT22;5009;50.656;7.188;2023-07-20T11:51:57;26.60;57.20
9941;DHT22;5009;50.656;7.188;2023-07-20T11:54:23;26.40;57.20
9941;DHT22;5009;50.656;7.188;2023-07-20T11:56:53;26.40;56.60
9941;DHT22;5009;50.656;7.188;2023-07-20T11:59:20;26.30;56.40
9941;DHT22;5009;50.656;7.188;2023-07-20T12:01:45;26.30;55.70
9941;DHT22;5009;50.656;7.188;2023-07-20T12:04:11;26.20;55.80
9941;DHT22;5009;50.656;7.188;2023-07-20T12:06:36;26.20;55.80
9941;DHT22;5009;50.656;7.188;2023-07-20T12:09:02;26.20;55.90
9941;DHT22;5009;50.656;7.188;2023-07-20T12:11:38;26.30;56.20
9941;DHT22;5009;50.656;7.188;2023-07-20T12:14:07;26.20;56.20
9941;DHT22;5009;50.656;7.188;2023-07-20T12:16:34;26.20;56.60
9941;DHT22;5009;50.656;7.188;2023-07-20T12:21:27;26.00;56.80
9941;DHT22;5009;50.656;7.188;2023-07-20T12:23:57;25.80;56.20
9941;DHT22;5009;50.656;7.188;2023-07-20T12:26:23;25.70;56.30
9941;DHT22;5009;50.656;7.188;2023-07-20T12:28:49;25.80;57.10
9941;DHT22;5009;50.656;7.188;2023-07-20T12:31:15;26.00;57.30
9941;DHT22;5009;50.656;7.188;2023-07-20T12:33:41;26.10;57.60
9941;DHT22;5009;50.656;7.188;2023-07-20T12:36:08;26.10;56.30
9941;DHT22;5009;50.656;7.188;2023-07-20T12:38:33;26.20;57.00
9941;DHT22;5009;50.656;7.188;2023-07-20T12:41:01;26.20;56.60
9941;DHT22;5009;50.656;7.188;2023-07-20T12:43:26;26.10;56.20
9941;DHT22;5009;50.656;7.188;2023-07-20T12:45:52;26.00;56.30
9941;DHT22;5009;50.656;7.188;2023-07-20T12:48:18;26.00;56.30
9941;DHT22;5009;50.656;7.188;2023-07-20T12:50:44;26.00;56.10
9941;DHT22;5009;50.656;7.188;2023-07-20T12:53:09;25.70;55.90
9941;DHT22;5009;50.656;7.188;2023-07-20T12:55:35;25.70;55.80
9941;DHT22;5009;50.656;7.188;2023-07-20T12:58:01;25.60;55.90
9941;DHT22;5009;50.656;7.188;2023-07-20T13:00:27;25.50;56.60
9941;DHT22;5009;50.656;7.188;2023-07-20T13:02:52;25.40;56.40
9941;DHT22;5009;50.656;7.188;2023-07-20T13:05:18;25.50;57.00
9941;DHT22;5009;50.656;7.188;2023-07-20T13:07:44;25.70;57.00
9941;DHT22;5009;50.656;7.188;2023-07-20T13:10:10;25.70;56.60
9941;DHT22;5009;50.656;7.188;2023-07-20T13:12:37;25.80;57.30
9941;DHT22;5009;50.656;7.188;2023-07-20T13:15:04;25.90;56.90
9941;DHT22;5009;50.656;7.188;2023-07-20T13:17:37;26.00;56.30
9941;DHT22;5009;50.656;7.188;2023-07-20T13:20:05;26.10;56.40
9941;DHT22;5009;50.656;7.188;2023-07-20T13:22:32;26.30;57.20
9941;DHT22;5009;50.656;7.188;2023-07-20T13:24:57;26.40;57.60
9941;DHT22;5009;50.656;7.188;2023-07-20T13:27:23;26.40;55.80
9941;DHT22;5009;50.656;7.188;2023-07-20T13:29:50;26.50;56.10
9941;DHT22;5009;50.656;7.188;2023-07-20T13:32:15;26.30;55.30
9941;DHT22;5009;50.656;7.188;2023-07-20T13:34:41;26.40;54.50
9941;DHT22;5009;50.656;7.188;2023-07-20T13:37:09;26.20;55.20
9941;DHT22;5009;50.656;7.188;2023-07-20T13:39:34;26.10;55.10
9941;DHT22;5009;50.656;7.188;2023-07-20T13:42:00;26.10;55.50
9941;DHT22;5009;50.656;7.188;2023-07-20T13:44:31;26.00;54.80
9941;DHT22;5009;50.656;7.188;2023-07-20T13:46:56;26.10;54.30
9941;DHT22;5009;50.656;7.188;2023-07-20T13:49:22;26.00;54.30
9941;DHT22;5009;50.656;7.188;2023-07-20T13:51:48;26.10;54.90
9941;DHT22;5009;50.656;7.188;2023-07-20T13:54:14;26.10;55.60
9941;DHT22;5009;50.656;7.188;2023-07-20T13:56:39;26.20;55.60
9941;DHT22;5009;50.656;7.188;2023-07-20T13:59:05;26.20;55.60
9941;DHT22;5009;50.656;7.188;2023-07-20T14:01:31;26.30;55.20
9941;DHT22;5009;50.656;7.188;2023-07-20T14:03:59;26.40;54.50
9941;DHT22;5009;50.656;7.188;2023-07-20T14:06:25;25.80;53.30
9941;DHT22;5009;50.656;7.188;2023-07-20T14:08:51;26.00;53.90
9941;DHT22;5009;50.656;7.188;2023-07-20T14:11:18;25.80;53.70
9941;DHT22;5009;50.656;7.188;2023-07-20T14:13:43;26.00;54.00
9941;DHT22;5009;50.656;7.188;2023-07-20T14:16:09;25.90;54.00
9941;DHT22;5009;50.656;7.188;2023-07-20T14:18:35;25.60;53.10
9941;DHT22;5009;50.656;7.188;2023-07-20T14:21:00;25.50;53.60
9941;DHT22;5009;50.656;7.188;2023-07-20T14:23:28;25.40;53.40
9941;DHT22;5009;50.656;7.188;2023-07-20T14:25:54;25.40;53.00
9941;DHT22;5009;50.656;7.188;2023-07-20T14:28:20;25.40;53.70
9941;DHT22;5009;50.656;7.188;2023-07-20T14:30:46;25.40;54.20
9941;DHT22;5009;50.656;7.188;2023-07-20T14:33:11;25.40;53.60
9941;DHT22;5009;50.656;7.188;2023-07-20T14:35:37;25.40;53.90
9941;DHT22;5009;50.656;7.188;2023-07-20T14:38:03;25.30;53.60
9941;DHT22;5009;50.656;7.188;2023-07-20T14:40:28;25.40;53.80
9941;DHT22;5009;50.656;7.188;2023-07-20T14:42:58;25.30;53.90
9941;DHT22;5009;50.656;7.188;2023-07-20T14:45:29;25.40;53.60
9941;DHT22;5009;50.656;7.188;2023-07-20T14:47:54;25.40;54.20
9941;DHT22;5009;50.656;7.188;2023-07-20T14:50:20;25.40;54.00
9941;DHT22;5009;50.656;7.188;2023-07-20T14:52:46;25.30;53.60
9941;DHT22;5009;50.656;7.188;2023-07-20T14:55:12;25.20;53.40
9941;DHT22;5009;50.656;7.188;2023-07-20T14:57:38;25.20;53.50
9941;DHT22;5009;50.656;7.188;2023-07-20T15:00:05;25.30;54.40
9941;DHT22;5009;50.656;7.188;2023-07-20T15:02:36;25.40;54.20
9941;DHT22;5009;50.656;7.188;2023-07-20T15:05:06;25.50;54.50
9941;DHT22;5009;50.656;7.188;2023-07-20T15:07:31;25.50;54.10
9941;DHT22;5009;50.656;7.188;2023-07-20T15:09:57;25.50;53.80
9941;DHT22;5009;50.656;7.188;2023-07-20T15:12:23;25.50;54.30
9941;DHT22;5009;50.656;7.188;2023-07-20T15:15:05;25.40;54.10
9941;DHT22;5009;50.656;7.188;2023-07-20T15:17:31;25.40;54.00
9941;DHT22;5009;50.656;7.188;2023-07-20T15:19:57;25.40;54.30
9941;DHT22;5009;50.656;7.188;2023-07-20T15:22:23;25.50;54.40
9941;DHT22;5009;50.656;7.188;2023-07-20T15:24:49;25.50;54.60
9941;DHT22;5009;50.656;7.188;2023-07-20T15:27:14;25.50;54.50
9941;DHT22;5009;50.656;7.188;2023-07-20T15:29:40;25.60;54.60
9941;DHT22;5009;50.656;7.188;2023-07-20T15:32:06;25.50;54.20
9941;DHT22;5009;50.656;7.188;2023-07-20T15:34:32;25.50;53.90
9941;DHT22;5009;50.656;7.188;2023-07-20T15:36:58;25.40;53.70
9941;DHT22;5009;50.656;7.188;2023-07-20T15:39:23;25.40;53.20
9941;DHT22;5009;50.656;7.188;2023-07-20T15:41:50;25.40;53.20
9941;DHT22;5009;50.656;7.188;2023-07-20T15:44:15;25.40;53.00
9941;DHT22;5009;50.656;7.188;2023-07-20T15:49:07;25.40;53.20
9941;DHT22;5009;50.656;7.188;2023-07-20T15:51:35;25.40;53.20
9941;DHT22;5009;50.656;7.188;2023-07-20T15:54:07;25.40;53.10
9941;DHT22;5009;50.656;7.188;2023-07-20T15:56:33;25.20;53.20
9941;DHT22;5009;50.656;7.188;2023-07-20T15:58:59;25.20;52.80
9941;DHT22;5009;50.656;7.188;2023-07-20T16:01:25;25.20;53.10
9941;DHT22;5009;50.656;7.188;2023-07-20T16:03:50;25.20;53.00
9941;DHT22;5009;50.656;7.188;2023-07-20T16:06:16;25.20;52.90
9941;DHT22;5009;50.656;7.188;2023-07-20T16:08:41;25.00;52.50
9941;DHT22;5009;50.656;7.188;2023-07-20T16:11:07;25.00;52.40
9941;DHT22;5009;50.656;7.188;2023-07-20T16:13:33;24.90;52.60
9941;DHT22;5009;50.656;7.188;2023-07-20T16:15:58;24.90;52.40
9941;DHT22;5009;50.656;7.188;2023-07-20T16:18:24;24.80;52.10
9941;DHT22;5009;50.656;7.188;2023-07-20T16:20:51;24.60;51.80
9941;DHT22;5009;50.656;7.188;2023-07-20T16:23:16;24.70;51.90
9941;DHT22;5009;50.656;7.188;2023-07-20T16:25:45;24.70;52.20
9941;DHT22;5009;50.656;7.188;2023-07-20T16:28:11;24.60;52.60
9941;DHT22;5009;50.656;7.188;2023-07-20T16:30:37;24.60;52.60
9941;DHT22;5009;50.656;7.188;2023-07-20T16:33:02;24.50;52.30
9941;DHT22;5009;50.656;7.188;2023-07-20T16:35:29;24.40;52.40
9941;DHT22;5009;50.656;7.188;2023-07-20T16:37:55;24.50;52.60
9941;DHT22;5009;50.656;7.188;2023-07-20T16:40:21;24.60;52.50
9941;DHT22;5009;50.656;7.188;2023-07-20T16:42:46;24.60;52.30
9941;DHT22;5009;50.656;7.188;2023-07-20T16:45:12;24.50;52.50
9941;DHT22;5009;50.656;7.188;2023-07-20T16:47:38;24.40;52.50
9941;DHT22;5009;50.656;7.188;2023-07-20T16:50:05;24.30;52.40
9941;DHT22;5009;50.656;7.188;2023-07-20T16:52:30;24.20;52.40
9941;DHT22;5009;50.656;7.188;2023-07-20T16:54:56;24.20;52.50
9941;DHT22;5009;50.656;7.188;2023-07-20T16:57:22;24.30;52.80
9941;DHT22;5009;50.656;7.188;2023-07-20T16:59:47;24.30;52.80
9941;DHT22;5009;50.656;7.188;2023-07-20T17:02:14;24.40;52.60
9941;DHT22;5009;50.656;7.188;2023-07-20T17:04:39;24.30;52.70
9941;DHT22;5009;50.656;7.188;2023-07-20T17:07:05;24.30;52.90
9941;DHT22;5009;50.656;7.188;2023-07-20T17:09:31;24.30;53.10
9941;DHT22;5009;50.656;7.188;2023-07-20T17:11:58;24.30;53.40
9941;DHT22;5009;50.656;7.188;2023-07-20T17:14:23;24.30;53.90
9941;DHT22;5009;50.656;7.188;2023-07-20T17:16:49;24.30;53.90
9941;DHT22;5009;50.656;7.188;2023-07-20T17:19:15;24.20;52.50
9941;DHT22;5009;50.656;7.188;2023-07-20T17:21:40;24.20;52.40
9941;DHT22;5009;50.656;7.188;2023-07-20T17:24:06;24.10;52.50
9941;DHT22;5009;50.656;7.188;2023-07-20T17:26:32;24.20;52.50
9941;DHT22;5009;50.656;7.188;2023-07-20T17:28:57;24.20;52.30
9941;DHT22;5009;50.656;7.188;2023-07-20T17:31:23;24.20;52.30
9941;DHT22;5009;50.656;7.188;2023-07-20T17:33:53;24.10;52.40
9941;DHT22;5009;50.656;7.188;2023-07-20T17:36:19;24.20;52.40
9941;DHT22;5009;50.656;7.188;2023-07-20T17:38:47;24.00;51.60
9941;DHT22;5009;50.656;7.188;2023-07-20T17:41:13;23.70;51.60
9941;DHT22;5009;50.656;7.188;2023-07-20T17:43:38;23.50;52.10
9941;DHT22;5009;50.656;7.188;2023-07-20T17:46:04;23.50;51.70
9941;DHT22;5009;50.656;7.188;2023-07-20T17:48:29;23.60;51.80
9941;DHT22;5009;50.656;7.188;2023-07-20T17:50:55;23.60;51.90
9941;DHT22;5009;50.656;7.188;2023-07-20T17:53:20;23.70;52.30
9941;DHT22;5009;50.656;7.188;2023-07-20T17:55:47;23.70;52.30
9941;DHT22;5009;50.656;7.188;2023-07-20T17:58:12;23.60;52.40
9941;DHT22;5009;50.656;7.188;2023-07-20T18:00:38;23.70;52.50
9941;DHT22;5009;50.656;7.188;2023-07-20T18:03:03;23.70;52.80
9941;DHT22;5009;50.656;7.188;2023-07-20T18:05:29;23.80;52.60
9941;DHT22;5009;50.656;7.188;2023-07-20T18:07:55;23.70;52.70
9941;DHT22;5009;50.656;7.188;2023-07-20T18:10:20;23.80;52.40
9941;DHT22;5009;50.656;7.188;2023-07-20T18:12:46;23.70;52.40
9941;DHT22;5009;50.656;7.188;2023-07-20T18:15:12;23.60;53.90
9941;DHT22;5009;50.656;7.188;2023-07-20T18:17:38;23.60;55.80